createdAt,value
2022-08-17T00:00:43.214Z,34.22
2022-08-17T00:03:17.301Z,34.66
2022-08-17T00:05:43.883Z,34.63
2022-08-17T00:08:10.256Z,34.25
2022-08-17T00:10:36.677Z,34.73
2022-08-17T00:13:03.079Z,34.75
2022-08-17T00:15:29.463Z,34.69
2022-08-17T00:17:55.831Z,34.76
2022-08-17T00:20:23.426Z,34.92
2022-08-17T00:22:58.572Z,34.99
2022-08-17T00:25:24.959Z,34.86
2022-08-17T00:27:51.329Z,35.44
2022-08-17T00:30:17.684Z,35.13
2022-08-17T00:33:12.019Z,35.02
2022-08-17T00:35:30.379Z,35.18
2022-08-17T00:37:56.777Z,35.34
2022-08-17T00:40:24.575Z,35.19
2022-08-17T00:42:51.352Z,35.41
2022-08-17T00:45:17.858Z,35.37
2022-08-17T00:47:44.235Z,35.13
2022-08-17T00:50:10.653Z,35.44
2022-08-17T00:52:36.994Z,35.64
2022-08-17T00:55:03.362Z,35.65
2022-08-17T00:57:29.725Z,35.56
2022-08-17T01:00:02.271Z,35.58
2022-08-17T01:02:29.973Z,35.94
2022-08-17T01:05:00.808Z,35.53
2022-08-17T01:07:27.180Z,35.59
2022-08-17T01:09:53.535Z,35.57
2022-08-17T01:12:19.903Z,35.58
2022-08-17T01:14:46.280Z,35.58
2022-08-17T01:17:12.661Z,35.86
2022-08-17T01:19:39.021Z,35.74
2022-08-17T01:22:05.377Z,35.86
2022-08-17T01:24:31.743Z,35.86
2022-08-17T01:27:00.238Z,36.24
2022-08-17T01:29:26.677Z,35.92
2022-08-17T01:31:53.053Z,36.05
2022-08-17T01:34:19.423Z,36.21
2022-08-17T01:36:46.751Z,36.42
2022-08-17T01:39:13.129Z,36.47
2022-08-17T01:41:39.494Z,36.35
2022-08-17T01:44:05.866Z,36.57
2022-08-17T01:46:32.223Z,36.57
2022-08-17T01:48:58.579Z,36.80
2022-08-17T01:51:24.978Z,36.49
2022-08-17T01:53:51.328Z,36.74
2022-08-17T01:56:17.685Z,36.97
2022-08-17T01:58:44.042Z,36.99
2022-08-17T02:01:10.577Z,37.02
2022-08-17T02:03:36.983Z,36.85
2022-08-17T02:06:03.350Z,36.88
2022-08-17T02:08:37.053Z,37.19
2022-08-17T02:11:05.712Z,37.00
2022-08-17T02:13:37.843Z,36.74
2022-08-17T02:16:04.210Z,36.82
2022-08-17T02:18:30.567Z,36.85
2022-08-17T02:20:56.939Z,36.67
2022-08-17T02:23:23.282Z,36.94
2022-08-17T02:25:49.641Z,36.76
2022-08-17T02:28:16.019Z,37.16
2022-08-17T02:31:01.640Z,37.15
2022-08-17T02:33:42.258Z,36.76
2022-08-17T02:36:10.016Z,36.66
2022-08-17T02:38:36.385Z,36.57
2022-08-17T02:41:02.747Z,36.71
2022-08-17T02:43:29.115Z,36.60
2022-08-17T02:45:55.479Z,36.56
2022-08-17T02:48:30.825Z,36.60
2022-08-17T02:50:57.673Z,37.12
2022-08-17T02:53:24.033Z,36.66
2022-08-17T02:55:52.015Z,36.73
2022-08-17T02:58:19.011Z,37.01
2022-08-17T03:01:01.955Z,36.97
2022-08-17T03:03:28.320Z,37.02
2022-08-17T03:05:54.673Z,36.83
2022-08-17T03:08:21.030Z,36.93
2022-08-17T03:10:47.387Z,36.68
2022-08-17T03:13:13.795Z,36.77
2022-08-17T03:15:40.666Z,36.72
2022-08-17T03:18:19.000Z,37.15
2022-08-17T03:20:51.613Z,36.76
2022-08-17T03:23:17.967Z,37.14
2022-08-17T03:25:44.328Z,37.02
2022-08-17T03:28:12.095Z,36.84
2022-08-17T03:30:38.494Z,36.97
2022-08-17T03:33:04.871Z,36.89
2022-08-17T03:35:31.236Z,36.86
2022-08-17T03:38:00.452Z,37.29
2022-08-17T03:40:58.107Z,36.89
2022-08-17T03:43:13.872Z,37.22
2022-08-17T03:45:42.015Z,37.24
2022-08-17T03:48:09.617Z,36.87
2022-08-17T03:50:35.976Z,36.94
2022-08-17T03:53:02.338Z,37.22
2022-08-17T03:55:35.790Z,36.94
2022-08-17T03:58:02.790Z,37.63
2022-08-17T04:00:29.187Z,37.58
2022-08-17T04:02:55.574Z,37.08
2022-08-17T04:05:21.937Z,37.75
2022-08-17T04:07:48.299Z,37.58
2022-08-17T04:10:14.647Z,37.17
2022-08-17T04:12:40.994Z,37.22
2022-08-17T04:15:07.368Z,37.52
2022-08-17T04:17:33.721Z,37.60
2022-08-17T04:20:00.090Z,37.69
2022-08-17T04:22:32.314Z,37.73
2022-08-17T04:25:00.322Z,37.47
2022-08-17T04:27:26.699Z,37.59
2022-08-17T04:29:54.921Z,37.70
2022-08-17T04:32:58.377Z,37.36
2022-08-17T04:35:08.597Z,37.62
2022-08-17T04:37:34.971Z,37.48
2022-08-17T04:40:04.155Z,37.67
2022-08-17T04:42:30.769Z,37.37
2022-08-17T04:44:57.133Z,37.57
2022-08-17T04:47:23.503Z,37.49
2022-08-17T04:49:49.855Z,37.60
2022-08-17T04:52:29.484Z,37.68
2022-08-17T04:55:02.541Z,37.64
2022-08-17T04:57:28.902Z,37.37
2022-08-17T05:00:04.075Z,37.54
2022-08-17T05:02:32.434Z,37.65
2022-08-17T05:04:58.787Z,37.12
2022-08-17T05:07:31.298Z,37.34
2022-08-17T05:09:58.005Z,37.35
2022-08-17T05:12:24.351Z,37.43
2022-08-17T05:14:50.707Z,37.40
2022-08-17T05:17:17.077Z,37.49
2022-08-17T05:19:43.457Z,37.79
2022-08-17T05:22:09.805Z,37.70
2022-08-17T05:24:42.878Z,37.55
2022-08-17T05:27:19.665Z,37.33
2022-08-17T05:29:46.030Z,37.15
2022-08-17T05:32:39.691Z,37.74
2022-08-17T05:34:58.725Z,37.50
2022-08-17T05:37:25.102Z,37.44
2022-08-17T05:39:51.489Z,37.35
2022-08-17T05:42:17.889Z,37.36
2022-08-17T05:44:44.244Z,37.68
2022-08-17T05:47:10.604Z,37.61
2022-08-17T05:49:37.056Z,37.12
2022-08-17T05:52:03.419Z,37.82
2022-08-17T05:54:29.804Z,37.56
2022-08-17T05:56:56.153Z,38.00
2022-08-17T05:59:22.501Z,37.61
2022-08-17T06:01:48.858Z,37.51
2022-08-17T06:04:15.257Z,37.61
2022-08-17T06:06:41.608Z,37.87
2022-08-17T06:09:07.965Z,37.78
2022-08-17T06:11:34.330Z,37.59
2022-08-17T06:14:01.725Z,37.90
2022-08-17T06:16:34.051Z,37.75
2022-08-17T06:19:01.154Z,37.75
2022-08-17T06:21:27.513Z,37.67
2022-08-17T06:23:58.540Z,37.97
2022-08-17T06:26:25.885Z,37.53
2022-08-17T06:28:56.875Z,37.78
2022-08-17T06:31:23.223Z,37.86
2022-08-17T06:33:49.592Z,37.56
2022-08-17T06:36:16.227Z,37.31
2022-08-17T06:38:42.651Z,37.67
2022-08-17T06:41:08.996Z,37.42
2022-08-17T06:43:35.355Z,38.03
2022-08-17T06:46:01.713Z,37.62
2022-08-17T06:48:30.530Z,37.75
2022-08-17T06:50:56.918Z,37.79
2022-08-17T06:53:23.282Z,38.05
2022-08-17T06:55:49.644Z,37.78
2022-08-17T06:58:16.899Z,37.94
2022-08-17T07:00:43.555Z,38.07
2022-08-17T07:03:10.267Z,37.79
2022-08-17T07:05:36.899Z,37.89
2022-08-17T07:08:05.129Z,37.57
2022-08-17T07:10:31.488Z,37.83
2022-08-17T07:12:57.853Z,37.79
2022-08-17T07:15:24.468Z,37.90
2022-08-17T07:17:50.811Z,37.81
2022-08-17T07:20:17.158Z,37.61
2022-08-17T07:22:50.622Z,38.19
2022-08-17T07:25:26.309Z,38.10
2022-08-17T07:27:52.767Z,38.40
2022-08-17T07:30:19.310Z,38.54
2022-08-17T07:32:45.668Z,38.54
2022-08-17T07:35:12.029Z,40.41
2022-08-17T07:37:41.603Z,41.37
2022-08-17T07:40:16.275Z,42.23
2022-08-17T07:42:45.146Z,42.12
2022-08-17T07:45:13.211Z,42.08
2022-08-17T07:47:39.565Z,42.34
2022-08-17T07:50:05.915Z,42.73
2022-08-17T07:52:50.821Z,42.44
2022-08-17T07:55:18.420Z,43.03
2022-08-17T07:57:44.767Z,43.77
2022-08-17T08:00:16.196Z,42.77
2022-08-17T08:02:42.921Z,42.89
2022-08-17T08:05:10.049Z,42.83
2022-08-17T08:07:36.531Z,43.28
2022-08-17T08:10:02.892Z,43.26
2022-08-17T08:12:33.367Z,43.06
2022-08-17T08:15:00.115Z,42.36
2022-08-17T08:17:26.479Z,41.93
2022-08-17T08:19:52.856Z,42.26
2022-08-17T08:22:19.217Z,42.71
2022-08-17T08:24:45.576Z,42.17
2022-08-17T08:27:11.972Z,42.26
2022-08-17T08:29:38.321Z,42.34
2022-08-17T08:32:04.673Z,42.19
2022-08-17T08:34:44.578Z,42.25
2022-08-17T08:37:25.018Z,42.21
2022-08-17T08:39:56.945Z,43.54
2022-08-17T08:42:23.350Z,45.18
2022-08-17T08:44:59.719Z,45.63
2022-08-17T08:47:31.241Z,45.61
2022-08-17T08:50:04.697Z,46.39
2022-08-17T08:52:31.866Z,45.43
2022-08-17T08:54:58.233Z,45.19
2022-08-17T08:57:30.882Z,45.58
2022-08-17T08:59:59.369Z,45.47
2022-08-17T09:02:25.717Z,44.91
2022-08-17T09:05:13.325Z,44.75
2022-08-17T09:07:38.461Z,44.65
2022-08-17T09:10:04.815Z,44.60
2022-08-17T09:12:31.166Z,44.25
2022-08-17T09:14:57.526Z,44.44
2022-08-17T09:17:23.919Z,44.57
2022-08-17T09:19:50.306Z,44.44
2022-08-17T09:22:16.674Z,43.91
2022-08-17T09:24:43.032Z,44.06
2022-08-17T09:27:10.293Z,44.19
2022-08-17T09:29:36.657Z,43.92
2022-08-17T09:32:03.016Z,44.42
2022-08-17T09:34:33.007Z,43.90
2022-08-17T09:36:59.759Z,43.95
2022-08-17T09:39:26.162Z,43.39
2022-08-17T09:41:52.560Z,44.05
2022-08-17T09:44:23.615Z,43.77
2022-08-17T09:46:50.154Z,43.92
2022-08-17T09:49:16.526Z,43.48
2022-08-17T09:51:42.888Z,43.93
2022-08-17T09:54:36.931Z,43.47
2022-08-17T09:57:11.843Z,43.99
2022-08-17T09:59:41.940Z,43.92
2022-08-17T10:02:08.364Z,44.10
2022-08-17T10:04:39.677Z,43.66
2022-08-17T10:07:06.031Z,42.51
2022-08-17T10:09:32.385Z,42.78
2022-08-17T10:11:59.073Z,42.33
2022-08-17T10:14:37.960Z,42.85
2022-08-17T10:17:10.596Z,42.20
2022-08-17T10:19:36.959Z,42.36
2022-08-17T10:22:14.740Z,42.01
2022-08-17T10:25:21.660Z,42.05
2022-08-17T10:27:37.070Z,42.25
2022-08-17T10:30:03.446Z,42.04
2022-08-17T10:32:29.904Z,41.74
2022-08-17T10:34:57.505Z,41.88
2022-08-17T10:37:24.015Z,41.42
2022-08-17T10:39:52.966Z,41.31
2022-08-17T10:42:32.275Z,41.62
2022-08-17T10:44:59.516Z,42.02
2022-08-17T10:47:25.982Z,41.56
2022-08-17T10:49:52.486Z,40.47
2022-08-17T10:52:18.991Z,39.94
2022-08-17T10:54:45.414Z,39.85
2022-08-17T10:57:11.858Z,39.73
2022-08-17T10:59:38.268Z,39.95
2022-08-17T11:02:04.758Z,39.77
2022-08-17T11:04:31.225Z,40.63
2022-08-17T11:06:57.698Z,40.60
2022-08-17T11:09:24.198Z,40.56
2022-08-17T11:11:50.642Z,40.73
2022-08-17T11:14:17.161Z,40.61
2022-08-17T11:16:43.535Z,40.72
2022-08-17T11:19:09.969Z,41.13
2022-08-17T11:21:36.363Z,41.14
2022-08-17T11:24:02.829Z,40.55
2022-08-17T11:26:29.334Z,39.83
2022-08-17T11:28:55.788Z,39.82
2022-08-17T11:31:22.228Z,39.74
2022-08-17T11:34:05.828Z,39.84
2022-08-17T11:36:32.239Z,40.15
2022-08-17T11:38:58.591Z,40.72
2022-08-17T11:41:25.022Z,40.49
2022-08-17T11:43:51.395Z,39.86
2022-08-17T11:46:17.749Z,39.82
2022-08-17T11:48:44.104Z,39.71
2022-08-17T11:51:10.458Z,39.66
2022-08-17T11:53:36.806Z,39.36
2022-08-17T11:56:03.161Z,39.27
2022-08-17T11:58:29.550Z,38.58
2022-08-17T12:00:55.927Z,38.29
2022-08-17T12:03:22.333Z,38.08
2022-08-17T12:05:48.811Z,37.81
2022-08-17T12:08:15.211Z,37.45
2022-08-17T12:10:41.589Z,37.12
2022-08-17T12:13:07.944Z,36.79
2022-08-17T12:15:34.297Z,36.90
2022-08-17T12:18:00.662Z,36.51
2022-08-17T12:20:27.021Z,35.53
2022-08-17T12:22:53.385Z,35.72
2022-08-17T12:25:19.755Z,35.34
2022-08-17T12:28:05.308Z,35.28
2022-08-17T12:30:32.518Z,34.95
2022-08-17T12:32:58.883Z,35.02
2022-08-17T12:35:25.243Z,35.59
2022-08-17T12:37:51.773Z,35.17
2022-08-17T12:40:18.264Z,35.68
2022-08-17T12:42:44.638Z,36.21
2022-08-17T12:45:10.982Z,35.67
2022-08-17T12:47:37.343Z,35.70
2022-08-17T12:50:03.700Z,36.13
2022-08-17T12:52:30.064Z,35.83
2022-08-17T12:54:56.434Z,35.83
2022-08-17T12:57:22.790Z,36.34
2022-08-17T12:59:49.163Z,36.32
2022-08-17T13:02:15.520Z,36.21
2022-08-17T13:04:41.881Z,36.00
2022-08-17T13:07:08.223Z,36.36
2022-08-17T13:09:35.635Z,36.23
2022-08-17T13:12:02.490Z,36.64
2022-08-17T13:14:31.351Z,36.67
2022-08-17T13:16:59.823Z,36.51
2022-08-17T13:19:39.998Z,36.93
2022-08-17T13:22:07.629Z,36.63
2022-08-17T13:24:38.032Z,36.30
2022-08-17T13:27:08.636Z,36.67
2022-08-17T13:29:35.124Z,36.86
2022-08-17T13:32:04.890Z,36.65
2022-08-17T13:34:31.519Z,36.48
2022-08-17T13:36:59.703Z,36.28
2022-08-17T13:39:26.290Z,36.40
2022-08-17T13:41:52.731Z,36.05
2022-08-17T13:44:19.091Z,36.51
2022-08-17T13:46:45.451Z,36.41
2022-08-17T13:49:18.771Z,36.86
2022-08-17T13:51:45.123Z,36.36
2022-08-17T13:54:11.473Z,35.99
2022-08-17T13:56:39.584Z,35.87
2022-08-17T13:59:06.163Z,35.83
2022-08-17T14:01:32.595Z,36.10
2022-08-17T14:03:59.205Z,36.84
2022-08-17T14:06:51.828Z,36.20
2022-08-17T14:09:12.288Z,36.17
2022-08-17T14:11:38.804Z,36.53
2022-08-17T14:14:05.329Z,36.92
2022-08-17T14:16:31.917Z,36.72
2022-08-17T14:18:58.489Z,37.35
2022-08-17T14:21:24.942Z,36.80
2022-08-17T14:23:54.723Z,36.68
2022-08-17T14:26:21.504Z,36.45
2022-08-17T14:28:54.507Z,36.39
2022-08-17T14:31:23.123Z,36.54
2022-08-17T14:33:49.478Z,36.31
2022-08-17T14:36:15.835Z,36.56
2022-08-17T14:38:42.227Z,36.49
2022-08-17T14:41:08.580Z,36.44
2022-08-17T14:43:34.935Z,36.42
2022-08-17T14:46:01.289Z,36.56
2022-08-17T14:48:27.651Z,36.58
2022-08-17T14:50:54.002Z,36.60
2022-08-17T14:53:20.361Z,36.33
2022-08-17T14:55:47.298Z,36.67
2022-08-17T14:58:15.022Z,36.39
2022-08-17T15:00:41.374Z,36.52
2022-08-17T15:03:07.732Z,36.59
2022-08-17T15:05:34.081Z,36.46
2022-08-17T15:08:00.456Z,36.44
2022-08-17T15:10:26.816Z,36.13
2022-08-17T15:12:53.174Z,36.32
2022-08-17T15:15:19.533Z,36.27
2022-08-17T15:17:46.265Z,36.12
2022-08-17T15:20:14.905Z,36.36
2022-08-17T15:22:41.579Z,36.31
2022-08-17T15:25:07.953Z,35.94
2022-08-17T15:27:34.298Z,35.82
2022-08-17T15:30:00.667Z,36.09
2022-08-17T15:32:27.076Z,35.86
2022-08-17T15:34:53.633Z,36.07
2022-08-17T15:37:20.027Z,35.77
2022-08-17T15:39:46.448Z,35.62
2022-08-17T15:42:12.812Z,35.87
2022-08-17T15:44:39.198Z,35.81
2022-08-17T15:47:05.596Z,35.85
2022-08-17T15:49:31.957Z,35.67
2022-08-17T15:51:58.444Z,35.66
2022-08-17T15:54:24.878Z,35.72
2022-08-17T15:56:58.127Z,35.74
2022-08-17T15:59:24.476Z,35.64
2022-08-17T16:03:14.922Z,36.56
2022-08-17T16:04:37.172Z,36.69
2022-08-17T16:07:10.267Z,37.01
2022-08-17T16:09:36.626Z,37.42
2022-08-17T16:12:02.988Z,37.48
2022-08-17T16:14:34.050Z,38.28
2022-08-17T16:17:01.651Z,38.37
2022-08-17T16:19:27.995Z,38.60
2022-08-17T16:21:54.356Z,38.94
2022-08-17T16:24:20.727Z,38.09
2022-08-17T16:26:47.085Z,37.86
2022-08-17T16:29:13.445Z,37.27
2022-08-17T16:31:39.809Z,37.78
2022-08-17T16:34:16.878Z,37.50
2022-08-17T16:36:54.779Z,37.26
2022-08-17T16:39:22.646Z,37.33
2022-08-17T16:41:49.003Z,37.47
2022-08-17T16:44:15.683Z,37.53
2022-08-17T16:46:45.797Z,37.75
2022-08-17T16:49:12.395Z,37.62
2022-08-17T16:51:58.733Z,37.89
2022-08-17T16:54:25.090Z,37.82
2022-08-17T16:56:51.471Z,38.59
2022-08-17T16:59:30.313Z,38.26
2022-08-17T17:01:58.704Z,38.70
2022-08-17T17:04:25.070Z,38.52
2022-08-17T17:06:51.423Z,38.60
2022-08-17T17:09:17.795Z,38.32
2022-08-17T17:11:44.165Z,38.72
2022-08-17T17:14:10.537Z,38.31
2022-08-17T17:16:36.906Z,38.06
2022-08-17T17:19:05.533Z,38.33
2022-08-17T17:21:31.900Z,38.29
2022-08-17T17:23:58.268Z,38.15
2022-08-17T17:26:24.624Z,38.31
2022-08-17T17:28:50.980Z,38.17
2022-08-17T17:31:17.374Z,38.95
2022-08-17T17:33:43.741Z,38.52
2022-08-17T17:36:10.103Z,38.98
2022-08-17T17:38:36.474Z,39.70
2022-08-17T17:41:03.101Z,39.61
2022-08-17T17:43:44.877Z,39.85
2022-08-17T17:46:28.229Z,39.63
2022-08-17T17:48:55.211Z,40.12
2022-08-17T17:52:05.877Z,40.33
2022-08-17T17:54:07.917Z,40.61
2022-08-17T17:56:43.300Z,41.08
2022-08-17T17:59:12.764Z,40.86
2022-08-17T18:01:39.457Z,41.11
2022-08-17T18:04:08.335Z,41.08
2022-08-17T18:06:46.792Z,41.00
2022-08-17T18:09:18.054Z,40.96
2022-08-17T18:11:46.082Z,40.68
2022-08-17T18:14:17.771Z,40.81
2022-08-17T18:16:44.149Z,40.62
2022-08-17T18:19:10.544Z,40.68
2022-08-17T18:21:36.950Z,40.85
2022-08-17T18:24:03.319Z,40.83
2022-08-17T18:26:29.718Z,40.12
2022-08-17T18:28:58.518Z,40.73
2022-08-17T18:31:24.882Z,40.77
2022-08-17T18:33:51.269Z,40.69
2022-08-17T18:36:17.632Z,40.68
2022-08-17T18:38:43.999Z,40.78
2022-08-17T18:41:10.439Z,41.27
2022-08-17T18:43:53.343Z,40.54
2022-08-17T18:46:28.730Z,40.61
2022-08-17T18:48:55.952Z,41.05
2022-08-17T18:51:39.768Z,40.82
2022-08-17T18:54:08.243Z,40.50
2022-08-17T18:56:34.604Z,39.85
2022-08-17T18:59:00.989Z,40.03
2022-08-17T19:01:41.982Z,40.56
2022-08-17T19:04:13.783Z,40.06
2022-08-17T19:06:40.211Z,40.27
2022-08-17T19:09:06.579Z,40.17
2022-08-17T19:11:32.953Z,40.68
2022-08-17T19:13:59.330Z,40.43
2022-08-17T19:16:25.769Z,40.63
2022-08-17T19:18:52.201Z,41.46
2022-08-17T19:21:18.562Z,41.93
2022-08-17T19:23:53.955Z,41.96
2022-08-17T19:26:53.375Z,44.17
2022-08-17T19:29:07.077Z,45.26
2022-08-17T19:31:33.498Z,45.94
2022-08-17T19:33:59.895Z,47.04
2022-08-17T19:36:26.314Z,46.34
2022-08-17T19:38:52.684Z,47.09
2022-08-17T19:41:19.407Z,47.66
2022-08-17T19:43:46.145Z,47.71
2022-08-17T19:46:12.591Z,48.34
2022-08-17T19:48:38.939Z,48.09
2022-08-17T19:51:05.291Z,48.42
2022-08-17T19:53:54.246Z,48.09
2022-08-17T19:56:17.993Z,48.65
2022-08-17T19:58:44.837Z,49.52
2022-08-17T20:01:11.249Z,48.56
2022-08-17T20:03:37.627Z,49.30
2022-08-17T20:06:19.348Z,49.48
2022-08-17T20:08:45.704Z,48.76
2022-08-17T20:11:12.081Z,48.82
2022-08-17T20:13:38.491Z,48.87
2022-08-17T20:16:04.864Z,49.33
2022-08-17T20:18:31.210Z,49.70
2022-08-17T20:20:57.575Z,49.62
2022-08-17T20:23:24.315Z,49.72
2022-08-17T20:25:50.663Z,49.29
2022-08-17T20:28:17.019Z,50.16
2022-08-17T20:30:43.374Z,50.41
2022-08-17T20:33:13.310Z,49.69
2022-08-17T20:35:39.915Z,49.42
2022-08-17T20:38:06.274Z,49.13
2022-08-17T20:40:32.644Z,49.40
2022-08-17T20:42:59.010Z,49.42
2022-08-17T20:45:25.377Z,49.52
2022-08-17T20:48:16.000Z,49.74
2022-08-17T20:50:38.089Z,49.96
2022-08-17T20:53:04.442Z,49.41
2022-08-17T20:55:30.790Z,49.38
2022-08-17T20:57:58.907Z,48.86
2022-08-17T21:00:25.255Z,48.98
2022-08-17T21:02:51.607Z,48.64
2022-08-17T21:05:17.959Z,48.21
2022-08-17T21:07:44.328Z,47.44
2022-08-17T21:10:10.692Z,46.23
2022-08-17T21:12:37.042Z,45.56
2022-08-17T21:15:03.410Z,45.04
2022-08-17T21:17:29.815Z,44.63
2022-08-17T21:20:10.265Z,44.70
2022-08-17T21:22:38.053Z,43.83
2022-08-17T21:25:04.421Z,43.90
2022-08-17T21:27:30.771Z,43.60
2022-08-17T21:29:57.120Z,43.64
2022-08-17T21:32:24.527Z,43.22
2022-08-17T21:34:51.759Z,43.36
2022-08-17T21:37:18.122Z,43.93
2022-08-17T21:39:44.652Z,44.29
2022-08-17T21:42:11.031Z,44.25
2022-08-17T21:44:37.418Z,43.95
2022-08-17T21:47:03.791Z,44.18
2022-08-17T21:49:30.151Z,44.03
2022-08-17T21:52:04.248Z,44.28
2022-08-17T21:54:30.639Z,44.20
2022-08-17T21:56:56.993Z,44.08
2022-08-17T21:59:23.342Z,44.15
2022-08-17T22:01:50.576Z,44.16
2022-08-17T22:04:17.084Z,44.03
2022-08-17T22:06:52.287Z,43.71
2022-08-17T22:09:23.840Z,43.78
2022-08-17T22:11:50.202Z,43.64
2022-08-17T22:14:16.545Z,43.75
2022-08-17T22:16:43.858Z,43.52
2022-08-17T22:19:10.219Z,43.61
2022-08-17T22:21:36.588Z,43.19
2022-08-17T22:24:02.950Z,43.47
2022-08-17T22:26:29.311Z,43.25
2022-08-17T22:28:55.675Z,43.20
2022-08-17T22:31:22.053Z,43.31
2022-08-17T22:33:48.420Z,43.46
2022-08-17T22:36:14.809Z,43.02
2022-08-17T22:38:41.533Z,42.83
2022-08-17T22:41:10.010Z,43.08
2022-08-17T22:43:36.376Z,42.93
2022-08-17T22:46:02.731Z,42.99
2022-08-17T22:48:29.082Z,42.82
2022-08-17T22:50:55.457Z,42.76
2022-08-17T22:53:21.808Z,42.46
2022-08-17T22:55:48.166Z,42.72
2022-08-17T22:58:14.533Z,42.79
2022-08-17T23:00:40.897Z,42.66
2022-08-17T23:03:07.336Z,42.47
2022-08-17T23:05:33.769Z,42.46
2022-08-17T23:08:00.125Z,42.67
2022-08-17T23:10:26.481Z,42.57
2022-08-17T23:12:52.866Z,42.07
2022-08-17T23:15:19.239Z,42.63
2022-08-17T23:17:45.593Z,42.21
2022-08-17T23:20:11.977Z,42.38
2022-08-17T23:22:38.333Z,42.34
2022-08-17T23:25:18.963Z,42.24
2022-08-17T23:27:46.960Z,42.04
2022-08-17T23:30:13.351Z,42.29
2022-08-17T23:32:53.256Z,42.17
2022-08-17T23:35:20.411Z,42.24
2022-08-17T23:38:06.761Z,42.43
2022-08-17T23:40:33.133Z,42.04
2022-08-17T23:42:59.442Z,42.23
2022-08-17T23:45:25.828Z,42.44
2022-08-17T23:47:52.397Z,42.21
2022-08-17T23:50:18.900Z,41.78
2022-08-17T23:52:46.627Z,41.84
2022-08-17T23:55:12.983Z,41.60
2022-08-17T23:57:39.353Z,41.73
